createdAt,value
2017-05-29T06:53:28.724Z,22048
2017-05-29T06:54:29.375Z,54112
2017-05-29T06:55:30.040Z,26720
2017-05-29T06:56:30.689Z,35104
2017-05-29T06:57:31.372Z,51360
2017-05-29T06:58:32.040Z,64224
2017-05-29T06:59:32.702Z,67264
2017-05-29T07:00:33.378Z,27968
2017-05-29T07:01:34.053Z,62880
2017-05-29T07:02:34.712Z,35200
2017-05-29T07:03:35.387Z,56640
2017-05-29T07:04:36.073Z,18080
2017-05-29T07:05:36.834Z,15948
2017-05-29T07:06:37.568Z,53952
2017-05-29T07:07:38.238Z,41280
2017-05-29T07:08:38.910Z,29568
2017-05-29T07:09:39.585Z,63136
2017-05-29T07:10:40.248Z,43872
2017-05-29T07:11:44.324Z,73664
2017-05-29T07:12:46.330Z,28896
2017-05-29T07:13:48.370Z,30624
2017-05-29T07:14:50.900Z,31360
2017-05-29T07:15:53.468Z,27008
2017-05-29T07:16:56.134Z,30240
2017-05-29T07:17:58.558Z,34720
2017-05-29T07:19:01.152Z,36736
2017-05-29T07:20:02.393Z,31392
2017-05-29T07:21:03.091Z,23904
2017-05-29T07:22:03.811Z,21440
2017-05-29T07:23:04.935Z,25664
2017-05-29T07:24:06.083Z,29216
2017-05-29T07:25:07.028Z,29120
2017-05-29T07:26:07.724Z,21280
2017-05-29T07:27:08.408Z,18464
2017-05-29T07:28:09.084Z,24096
2017-05-29T07:29:09.768Z,22336
2017-05-29T07:30:10.433Z,28608
2017-05-29T07:31:11.103Z,20480
2017-05-29T07:32:11.775Z,20096
2017-05-29T07:33:12.436Z,24160
2017-05-29T07:34:13.125Z,45152
2017-05-29T07:35:13.839Z,27904
2017-05-29T07:36:14.519Z,65728
2017-05-29T07:37:15.221Z,83232
2017-05-29T07:38:15.902Z,81024
2017-05-29T07:39:16.571Z,79936
2017-05-29T07:40:17.259Z,80864
2017-05-29T07:41:17.940Z,86336
2017-05-29T07:42:18.616Z,91008
2017-05-29T07:43:19.293Z,92000
2017-05-29T07:44:19.958Z,35072
2017-05-29T07:45:20.681Z,46880
2017-05-29T07:46:21.359Z,81152
2017-05-29T07:47:22.044Z,84736
2017-05-29T07:48:22.724Z,76704
2017-05-29T07:49:23.401Z,86944
2017-05-29T07:50:24.098Z,25888
2017-05-29T07:51:24.769Z,22592
2017-05-29T07:52:25.445Z,23712
2017-05-29T07:53:26.119Z,24160
2017-05-29T07:54:26.800Z,34848
2017-05-29T07:55:27.473Z,32896
2017-05-29T07:56:28.150Z,36800
2017-05-29T07:57:28.856Z,34720
2017-05-29T07:58:29.529Z,35200
2017-05-29T07:59:30.208Z,33984
2017-05-29T08:00:30.918Z,28864
2017-05-29T08:01:31.613Z,28928
2017-05-29T08:02:32.280Z,29152
2017-05-29T08:03:32.957Z,28704
2017-05-29T08:04:33.641Z,31552
2017-05-29T08:05:34.309Z,32704
2017-05-29T08:06:35.013Z,34176
2017-05-29T08:07:35.757Z,41984
2017-05-29T08:08:36.434Z,31968
2017-05-29T08:09:37.137Z,30688
2017-05-29T08:10:37.810Z,26784
2017-05-29T08:11:38.479Z,30720
2017-05-29T08:12:39.174Z,45696
2017-05-29T08:13:39.834Z,44768
2017-05-29T08:14:40.527Z,49216
2017-05-29T08:15:41.196Z,28544
2017-05-29T08:16:41.869Z,32672
2017-05-29T08:17:42.545Z,30304
2017-05-29T08:18:43.238Z,35488
2017-05-29T08:19:43.921Z,25920
2017-05-29T08:20:44.609Z,29504
2017-05-29T08:21:45.281Z,44544
2017-05-29T08:22:45.980Z,43840
2017-05-29T08:23:46.670Z,32544
2017-05-29T08:24:47.356Z,29984
2017-05-29T08:25:48.028Z,25440
2017-05-29T08:26:48.694Z,72960
2017-05-29T08:27:49.377Z,48832
2017-05-29T08:28:50.061Z,42624
2017-05-29T08:29:50.760Z,39104
2017-05-29T08:30:51.429Z,38976
2017-05-29T08:31:52.112Z,71232
2017-05-29T08:32:52.813Z,71360
2017-05-29T08:33:53.527Z,69472
2017-05-29T08:34:54.178Z,67776
2017-05-29T08:35:54.886Z,66080
2017-05-29T08:36:55.567Z,43200
2017-05-29T08:37:56.225Z,57376
2017-05-29T08:38:56.956Z,65280
2017-05-29T08:39:57.632Z,76224
2017-05-29T08:40:58.586Z,73280
2017-05-29T08:41:59.290Z,54240
2017-05-29T08:42:59.960Z,70240
2017-05-29T08:44:00.767Z,69952
2017-05-29T08:45:01.509Z,71360
2017-05-29T08:46:02.175Z,34528
2017-05-29T08:47:02.871Z,32864
2017-05-29T08:48:03.580Z,72672
2017-05-29T08:49:04.218Z,73120
2017-05-29T08:50:04.911Z,68704
2017-05-29T08:51:05.590Z,72288
2017-05-29T08:52:06.364Z,72736
2017-05-29T08:53:07.045Z,70624
2017-05-29T08:54:07.722Z,67424
2017-05-29T08:55:08.435Z,66496
2017-05-29T08:56:09.108Z,68096
2017-05-29T08:57:09.784Z,64832
2017-05-29T08:58:10.508Z,61984
2017-05-29T08:59:11.169Z,64800
2017-05-29T09:00:11.959Z,70656
2017-05-29T09:01:12.675Z,69248
2017-05-29T09:02:13.423Z,68384
2017-05-29T09:03:14.119Z,54528
2017-05-29T09:04:14.788Z,44864
2017-05-29T09:05:15.472Z,67200
2017-05-29T09:06:16.157Z,65920
2017-05-29T09:07:16.824Z,67168
2017-05-29T09:08:17.594Z,66336
2017-05-29T09:09:18.274Z,64832
2017-05-29T09:10:18.940Z,66752
2017-05-29T09:11:19.641Z,68096
2017-05-29T09:12:20.353Z,72352
2017-05-29T09:15:56.508Z,71168
2017-05-29T09:16:57.316Z,52128
2017-05-29T09:17:58.064Z,69408
2017-05-29T09:18:58.737Z,69600
2017-05-29T09:19:59.563Z,73952
2017-05-29T09:21:00.284Z,77600
2017-05-29T09:22:00.959Z,74496
2017-05-29T09:23:01.648Z,74560
2017-05-29T09:24:02.341Z,74016
2017-05-29T09:25:03.025Z,75008
2017-05-29T09:26:03.736Z,76576
2017-05-29T09:27:04.440Z,77376
2017-05-29T09:28:05.139Z,78240
2017-05-29T09:29:06.022Z,81536
2017-05-29T09:30:07.053Z,75712
2017-05-29T09:31:07.784Z,69728
2017-05-29T09:32:08.453Z,68576
2017-05-29T09:33:09.143Z,67264
2017-05-29T09:34:09.834Z,66528
2017-05-29T09:35:10.514Z,66432
2017-05-29T09:36:11.222Z,68992
2017-05-29T09:37:11.910Z,67936
2017-05-29T09:38:12.578Z,70784
2017-05-29T09:39:13.268Z,72896
2017-05-29T09:40:13.973Z,70496
2017-05-29T09:41:14.661Z,72160
2017-05-29T09:42:15.381Z,57344
2017-05-29T09:43:16.058Z,76288
2017-05-29T09:44:16.778Z,73472
2017-05-29T09:45:17.473Z,74304
2017-05-29T09:46:18.178Z,74144
2017-05-29T09:47:18.866Z,74944
2017-05-29T09:48:19.544Z,74464
2017-05-29T09:49:20.264Z,73536
2017-05-29T09:50:20.987Z,72800
2017-05-29T09:51:21.686Z,68832
2017-05-29T09:52:22.408Z,52736
2017-05-29T09:53:23.080Z,28768
2017-05-29T09:54:23.762Z,15848
2017-05-29T09:55:24.497Z,14052
2017-05-29T09:56:25.202Z,13608
2017-05-29T09:57:25.888Z,13860
2017-05-29T09:58:26.570Z,13800
2017-05-29T09:59:27.372Z,13468
2017-05-29T10:00:28.321Z,13260
2017-05-29T10:01:29.356Z,13084
2017-05-29T10:02:30.257Z,12852
2017-05-29T10:03:30.982Z,12608
2017-05-29T10:04:31.720Z,12480
2017-05-29T10:05:32.402Z,14032
2017-05-29T10:06:33.389Z,15004
2017-05-29T10:07:34.184Z,14144
2017-05-29T10:08:34.855Z,13480
2017-05-29T10:09:35.677Z,12876
2017-05-29T10:10:36.538Z,12496
2017-05-29T10:11:37.261Z,12216
2017-05-29T10:12:37.984Z,11764
2017-05-29T10:13:38.662Z,11604
2017-05-29T10:14:39.364Z,11532
2017-05-29T10:15:40.093Z,11428
2017-05-29T10:16:40.780Z,11384
2017-05-29T10:17:41.466Z,11348
2017-05-29T10:18:42.160Z,11164
2017-05-29T10:19:42.849Z,10980
2017-05-29T10:20:43.533Z,10760
2017-05-29T10:21:44.221Z,10540
2017-05-29T10:22:44.929Z,10448
2017-05-29T10:23:45.612Z,10356
2017-05-29T10:24:46.468Z,10040
2017-05-29T10:25:47.233Z,10092
2017-05-29T10:26:47.952Z,10056
2017-05-29T10:27:48.698Z,10144
2017-05-29T10:28:49.395Z,10220
2017-05-29T10:29:50.081Z,10372
2017-05-29T10:30:50.757Z,10544
2017-05-29T10:31:51.434Z,10512
2017-05-29T10:32:52.136Z,10428
2017-05-29T10:33:52.812Z,10420
2017-05-29T10:34:53.529Z,10444
2017-05-29T10:35:54.213Z,10364
2017-05-29T10:36:54.885Z,10160
2017-05-29T10:37:55.564Z,9952
2017-05-29T10:38:56.293Z,9824
2017-05-29T10:39:56.977Z,9624
2017-05-29T10:40:57.697Z,9332
2017-05-29T10:41:58.351Z,9164
2017-05-29T10:42:59.017Z,8928
2017-05-29T10:43:59.696Z,8668
2017-05-29T10:45:00.375Z,8424
2017-05-29T10:46:01.083Z,8204
2017-05-29T10:47:01.754Z,8220
2017-05-29T10:48:02.433Z,8604
2017-05-29T10:49:03.110Z,9600
2017-05-29T10:50:03.777Z,11924
2017-05-29T10:51:04.456Z,13896
2017-05-29T10:52:05.166Z,14788
2017-05-29T10:53:05.842Z,16684
2017-05-29T10:54:06.519Z,17152
2017-05-29T10:55:07.189Z,17408
2017-05-29T10:56:07.858Z,16276
2017-05-29T10:57:08.538Z,16052
2017-05-29T10:58:09.206Z,15668
2017-05-29T10:59:09.884Z,13960
2017-05-29T11:00:10.565Z,14500
2017-05-29T11:01:11.240Z,15920
2017-05-29T11:02:11.908Z,17536
2017-05-29T11:03:12.567Z,18208
2017-05-29T11:04:13.253Z,18176
2017-05-29T11:05:13.934Z,17984
2017-05-29T11:06:14.626Z,17504
2017-05-29T11:07:15.304Z,18432
2017-05-29T11:08:15.990Z,18848
2017-05-29T11:09:16.662Z,18720
2017-05-29T11:10:17.386Z,18400
2017-05-29T11:11:18.054Z,17504
2017-05-29T11:12:18.721Z,16992
2017-05-29T11:13:19.400Z,16992
2017-05-29T11:14:20.065Z,17312
2017-05-29T11:15:20.758Z,17664
2017-05-29T11:16:21.429Z,16992
2017-05-29T11:17:22.126Z,16376
2017-05-29T11:18:22.802Z,15444
2017-05-29T11:19:23.503Z,14556
2017-05-29T11:20:24.188Z,14524
2017-05-29T11:21:24.925Z,14736
2017-05-29T11:22:25.563Z,15188
2017-05-29T11:23:26.230Z,15668
2017-05-29T11:24:26.955Z,16320
2017-05-29T11:25:27.637Z,16928
2017-05-29T11:26:28.324Z,17312
2017-05-29T11:27:29.002Z,17344
2017-05-29T11:28:29.671Z,17152
2017-05-29T11:29:30.393Z,17280
2017-05-29T11:30:31.090Z,17216
2017-05-29T11:31:31.769Z,16864
2017-05-29T11:32:32.441Z,16800
2017-05-29T11:33:33.146Z,16268
2017-05-29T11:34:33.819Z,15804
2017-05-29T11:35:34.516Z,16412
2017-05-29T11:36:35.203Z,17024
2017-05-29T11:37:35.880Z,17216
2017-05-29T11:38:36.559Z,17600
2017-05-29T11:39:37.229Z,17568
2017-05-29T11:40:37.920Z,18080
2017-05-29T11:41:38.601Z,18208
2017-05-29T11:42:39.310Z,18496
2017-05-29T11:43:40.003Z,18784
2017-05-29T11:44:40.670Z,19488
2017-05-29T11:45:41.343Z,19456
2017-05-29T11:46:42.012Z,19456
2017-05-29T11:47:42.693Z,19328
2017-05-29T11:48:43.371Z,19488
2017-05-29T11:49:44.077Z,19680
2017-05-29T11:50:44.749Z,19136
2017-05-29T11:51:45.435Z,19328
2017-05-29T11:52:46.109Z,18496
2017-05-29T11:53:46.783Z,18048
2017-05-29T11:54:47.468Z,17728
2017-05-29T11:55:48.166Z,16608
2017-05-29T11:56:48.842Z,16448
2017-05-29T11:57:49.522Z,15164
2017-05-29T11:58:50.193Z,14540
2017-05-29T11:59:50.868Z,13572
2017-05-29T12:00:51.553Z,13020
2017-05-29T12:01:52.247Z,13144
2017-05-29T12:02:52.924Z,13312
2017-05-29T12:03:53.595Z,13308
2017-05-29T12:04:54.284Z,13172
2017-05-29T12:05:54.961Z,13196
2017-05-29T12:06:55.658Z,13764
2017-05-29T12:07:56.346Z,13384
2017-05-29T12:08:57.031Z,13644
2017-05-29T12:09:57.736Z,13088
2017-05-29T12:10:58.438Z,12276
2017-05-29T12:11:59.109Z,11840
2017-05-29T12:12:59.780Z,11388
2017-05-29T12:14:00.440Z,10940
2017-05-29T12:15:01.116Z,10840
2017-05-29T12:16:01.845Z,10876
2017-05-29T12:17:02.560Z,10872
2017-05-29T12:18:03.297Z,10992
2017-05-29T12:19:03.974Z,10396
2017-05-29T12:20:04.646Z,10056
2017-05-29T12:21:05.322Z,9688
2017-05-29T12:22:06.014Z,9492
2017-05-29T12:23:06.716Z,9532
2017-05-29T12:24:07.394Z,9728
2017-05-29T12:25:08.069Z,9580
2017-05-29T12:26:08.736Z,8988
2017-05-29T12:27:09.401Z,8260
2017-05-29T12:28:10.083Z,7440
2017-05-29T12:29:10.756Z,6824
2017-05-29T12:30:11.433Z,6536
2017-05-29T12:31:12.096Z,6380
2017-05-29T12:32:12.773Z,6240
2017-05-29T12:33:13.465Z,6292
2017-05-29T12:34:14.139Z,6428
2017-05-29T12:35:14.813Z,6564
2017-05-29T12:36:15.479Z,6536
2017-05-29T12:37:16.193Z,6592
2017-05-29T12:38:16.873Z,6956
2017-05-29T12:39:17.560Z,7188
2017-05-29T12:40:18.220Z,7304
2017-05-29T12:41:18.892Z,7452
2017-05-29T12:42:19.571Z,7180
2017-05-29T12:43:20.236Z,6832
2017-05-29T12:44:20.939Z,6608
2017-05-29T12:45:21.621Z,6432
2017-05-29T12:46:22.284Z,6300
2017-05-29T12:47:22.963Z,6288
2017-05-29T12:48:23.635Z,6004
2017-05-29T12:49:24.327Z,5752
2017-05-29T12:50:24.998Z,5704
2017-05-29T12:51:25.674Z,5804
2017-05-29T12:52:26.349Z,5764
2017-05-29T12:53:27.039Z,5584
2017-05-29T12:54:27.723Z,5364
2017-05-29T12:55:28.576Z,5140
2017-05-29T12:56:29.245Z,4968
2017-05-29T12:57:29.914Z,4836
2017-05-29T12:58:30.588Z,4800
2017-05-29T12:59:31.263Z,4964
2017-05-29T13:00:31.932Z,4964
2017-05-29T13:01:32.611Z,4848
2017-05-29T13:02:33.283Z,4692
2017-05-29T13:03:33.959Z,4592
2017-05-29T13:04:34.654Z,4652
2017-05-29T13:05:35.454Z,4656
2017-05-29T13:06:36.127Z,4756
2017-05-29T13:07:36.796Z,4744
2017-05-29T13:08:37.477Z,4624
2017-05-29T13:09:38.150Z,4512
2017-05-29T13:10:38.823Z,4384
2017-05-29T13:11:39.483Z,4288
2017-05-29T13:12:40.164Z,4176
2017-05-29T13:13:40.824Z,4100
2017-05-29T13:14:41.529Z,4032
2017-05-29T13:15:42.263Z,3972
2017-05-29T13:16:42.952Z,3916
2017-05-29T13:17:43.666Z,3884
2017-05-29T13:18:44.399Z,3856
2017-05-29T13:19:45.069Z,3856
2017-05-29T13:20:45.797Z,3832
2017-05-29T13:21:46.476Z,3804
2017-05-29T13:22:47.145Z,3784
2017-05-29T13:23:47.842Z,3756
2017-05-29T13:24:48.523Z,3744
2017-05-29T13:25:49.193Z,3732
2017-05-29T13:26:49.898Z,3724
2017-05-29T13:27:50.575Z,3700
2017-05-29T13:28:51.272Z,3684
2017-05-29T13:29:51.957Z,3684
2017-05-29T13:30:52.674Z,3672
2017-05-29T13:31:53.342Z,3656
2017-05-29T13:32:54.030Z,3668
2017-05-29T13:33:54.698Z,3660
2017-05-29T13:34:55.366Z,3652
2017-05-29T13:35:56.048Z,3652
2017-05-29T13:36:56.725Z,3640
2017-05-29T13:37:57.431Z,3624
2017-05-29T13:38:58.108Z,3612
2017-05-29T13:39:58.809Z,3596
2017-05-29T13:40:59.494Z,3588
2017-05-29T13:42:00.176Z,3572
2017-05-29T13:43:00.872Z,3556
2017-05-29T13:44:01.546Z,3548
2017-05-29T13:45:02.275Z,3540
2017-05-29T13:46:03.003Z,3528
2017-05-29T13:47:03.700Z,3512
2017-05-29T13:48:04.371Z,3496
2017-05-29T13:49:05.043Z,3480
2017-05-29T13:50:05.712Z,3468
2017-05-29T13:51:06.401Z,3456
2017-05-29T13:52:07.074Z,3440
2017-05-29T13:53:07.743Z,3428
2017-05-29T13:54:08.411Z,3412
2017-05-29T13:55:09.092Z,3396
2017-05-29T13:56:09.771Z,3388
2017-05-29T13:57:10.437Z,3380
2017-05-29T13:58:11.099Z,3368
2017-05-29T13:59:11.780Z,3360
2017-05-29T14:00:12.603Z,3352
2017-05-29T14:01:13.269Z,3340
2017-05-29T14:02:13.948Z,3336
2017-05-29T14:03:14.621Z,3320
2017-05-29T14:04:15.293Z,3316
2017-05-29T14:05:15.976Z,3312
2017-05-29T14:06:16.689Z,3300
2017-05-29T14:07:17.355Z,3292
2017-05-29T14:08:18.035Z,3284
2017-05-29T14:09:18.712Z,3276
2017-05-29T14:10:19.374Z,3272
2017-05-29T14:11:20.053Z,3260
2017-05-29T14:12:20.748Z,3268
2017-05-29T14:13:21.478Z,3268
2017-05-29T14:14:22.152Z,3260
2017-05-29T14:15:22.840Z,3256
2017-05-29T14:16:23.507Z,3244
2017-05-29T14:17:24.189Z,3244
2017-05-29T14:18:24.867Z,3248
2017-05-29T14:19:25.543Z,3236
2017-05-29T14:20:26.220Z,3232
2017-05-29T14:21:26.895Z,3224
2017-05-29T14:22:27.568Z,3220
2017-05-29T14:23:28.289Z,3216
2017-05-29T14:24:28.998Z,3208
2017-05-29T14:25:29.673Z,3204
2017-05-29T14:26:30.359Z,3196
2017-05-29T14:27:31.030Z,3188
2017-05-29T14:28:31.700Z,3188
2017-05-29T14:29:32.388Z,3180
2017-05-29T14:30:33.063Z,3180
2017-05-29T14:31:33.761Z,3176
2017-05-29T14:32:34.430Z,3168
2017-05-29T14:33:35.112Z,3160
2017-05-29T14:34:35.815Z,3160
2017-05-29T14:35:36.503Z,3160
2017-05-29T14:36:37.202Z,3164
2017-05-29T14:37:37.872Z,3156
2017-05-29T14:38:38.580Z,3152
2017-05-29T14:39:39.258Z,3144
2017-05-29T14:40:39.935Z,3156
2017-05-29T14:41:40.646Z,3152
2017-05-29T14:42:41.311Z,3152
2017-05-29T14:43:41.986Z,3156
2017-05-29T14:44:42.668Z,3156
2017-05-29T14:45:43.356Z,3152
2017-05-29T14:46:44.040Z,3144
2017-05-29T14:47:44.729Z,3148
2017-05-29T14:48:45.450Z,3144
2017-05-29T14:49:46.171Z,3144
2017-05-29T14:50:46.890Z,3160
2017-05-29T14:51:47.645Z,3148
2017-05-29T14:52:48.318Z,3160
2017-05-29T14:53:49.009Z,3152
2017-05-29T14:54:49.666Z,3156
2017-05-29T14:55:50.347Z,3184
2017-05-29T14:56:51.025Z,3224
2017-05-29T14:57:51.707Z,3304
2017-05-29T14:58:52.378Z,3412
2017-05-29T14:59:53.051Z,3500
2017-05-29T15:00:53.730Z,3728
2017-05-29T15:01:54.413Z,3616
2017-05-29T15:02:55.103Z,3660
2017-05-29T15:03:55.783Z,3440
2017-05-29T15:04:56.478Z,3332
2017-05-29T15:05:57.171Z,3460
2017-05-29T15:06:57.841Z,3556
2017-05-29T15:07:58.519Z,4052
2017-05-29T15:08:59.216Z,4072
2017-05-29T15:09:59.890Z,4012
2017-05-29T15:11:00.555Z,4100
2017-05-29T15:12:01.234Z,4220
2017-05-29T15:13:01.910Z,4528
2017-05-29T15:14:02.626Z,4612
2017-05-29T15:15:03.302Z,4904
2017-05-29T15:16:04.033Z,5336
2017-05-29T15:17:04.745Z,5644
2017-05-29T15:18:05.381Z,5808
2017-05-29T15:19:06.074Z,5908
2017-05-29T15:20:06.751Z,5928
2017-05-29T15:21:07.472Z,5648
2017-05-29T15:22:08.204Z,5424
2017-05-29T15:23:08.861Z,5020
2017-05-29T15:24:09.665Z,4840
2017-05-29T15:25:10.336Z,4736
2017-05-29T15:26:11.008Z,4392
2017-05-29T15:27:11.856Z,4184
2017-05-29T15:28:12.541Z,4336
2017-05-29T15:29:13.232Z,4720
2017-05-29T15:30:13.906Z,5096
2017-05-29T15:31:14.714Z,5396
2017-05-29T15:32:15.648Z,5468
2017-05-29T15:33:16.341Z,5436
2017-05-29T15:34:17.004Z,5332
2017-05-29T15:35:17.745Z,5324
2017-05-29T15:36:18.429Z,4912
2017-05-29T15:37:19.108Z,4088
2017-05-29T15:38:19.832Z,3800
2017-05-29T15:39:20.515Z,3716
2017-05-29T15:40:21.203Z,3660
2017-05-29T15:41:21.923Z,3608
2017-05-29T15:42:22.661Z,3516
2017-05-29T15:43:23.987Z,3448
2017-05-29T15:44:24.681Z,3436
2017-05-29T15:45:25.357Z,3428
2017-05-29T15:46:26.033Z,3400
2017-05-29T15:47:26.742Z,3368
2017-05-29T15:48:27.413Z,3412
2017-05-29T15:49:28.450Z,3436
2017-05-29T15:50:29.209Z,3440
2017-05-29T15:51:29.874Z,3472
2017-05-29T15:52:30.549Z,3536
2017-05-29T15:53:31.237Z,3572
2017-05-29T15:54:31.909Z,3624
2017-05-29T15:55:32.577Z,3640
2017-05-29T15:56:33.245Z,3644
2017-05-29T15:57:33.917Z,3668
2017-05-29T15:58:34.593Z,3708
2017-05-29T15:59:35.270Z,3732
2017-05-29T16:00:35.960Z,3792
2017-05-29T16:01:36.631Z,3824
2017-05-29T16:02:37.326Z,3876
2017-05-29T16:03:38.006Z,3924
2017-05-29T16:04:38.684Z,3952
2017-05-29T16:05:39.364Z,3972
2017-05-29T16:06:40.064Z,4020
2017-05-29T16:07:40.743Z,4016
2017-05-29T16:08:41.421Z,4048
2017-05-29T16:09:42.131Z,4080
2017-05-29T16:10:42.810Z,4132
2017-05-29T16:11:43.483Z,4212
2017-05-29T16:12:44.198Z,4328
2017-05-29T16:13:46.164Z,4368
2017-05-29T16:14:46.836Z,4360
2017-05-29T16:15:47.551Z,4324
2017-05-29T16:16:48.227Z,4244
2017-05-29T16:17:48.904Z,4136
2017-05-29T16:18:49.585Z,4120
2017-05-29T16:19:50.301Z,4132
2017-05-29T16:20:50.970Z,4184
2017-05-29T16:21:51.652Z,4300
2017-05-29T16:22:52.319Z,4336
2017-05-29T16:23:53.011Z,4244
2017-05-29T16:24:53.690Z,4072
2017-05-29T16:25:54.360Z,3864
2017-05-29T16:26:55.067Z,3736
2017-05-29T16:27:55.724Z,3692
2017-05-29T16:28:56.416Z,3704
2017-05-29T16:29:57.108Z,3748
2017-05-29T16:30:57.798Z,3712
2017-05-29T16:31:58.523Z,3640
2017-05-29T16:32:59.206Z,3540
2017-05-29T16:33:59.871Z,3452
2017-05-29T16:35:00.616Z,3372
2017-05-29T16:36:01.337Z,3288
2017-05-29T16:37:02.076Z,3252
2017-05-29T16:38:02.791Z,3200
2017-05-29T16:39:03.440Z,3184
2017-05-29T16:40:04.129Z,3180
2017-05-29T16:41:04.820Z,3168
2017-05-29T16:42:05.738Z,3196
2017-05-29T16:43:06.410Z,3232
2017-05-29T16:44:07.091Z,3200
2017-05-29T16:45:07.767Z,3160
2017-05-29T16:46:08.430Z,3136
2017-05-29T16:47:09.211Z,3112
2017-05-29T16:48:09.840Z,3076
2017-05-29T16:49:10.521Z,3052
2017-05-29T16:50:11.205Z,3036
2017-05-29T16:51:11.971Z,3016
2017-05-29T16:52:12.656Z,2948
2017-05-29T16:53:13.393Z,2904
2017-05-29T16:54:14.088Z,2864
2017-05-29T16:55:14.758Z,2836
2017-05-29T16:56:15.431Z,2804
2017-05-29T16:57:16.108Z,2780
2017-05-29T16:58:16.795Z,2764
2017-05-29T16:59:17.456Z,2772
2017-05-29T17:00:18.148Z,2780
2017-05-29T17:01:18.805Z,2792
2017-05-29T17:02:19.535Z,2764
2017-05-29T17:03:20.225Z,2756
2017-05-29T17:04:20.898Z,2772
2017-05-29T17:05:21.576Z,2748
2017-05-29T17:06:22.269Z,2724
2017-05-29T17:07:22.946Z,2696
2017-05-29T17:08:23.612Z,2636
2017-05-29T17:09:24.293Z,2616
2017-05-29T17:10:24.962Z,2608
2017-05-29T17:11:25.651Z,2612
2017-05-29T17:12:26.321Z,2604
2017-05-29T17:13:26.999Z,2628
2017-05-29T17:14:27.662Z,2604
2017-05-29T17:15:28.341Z,2612
2017-05-29T17:16:29.019Z,2644
2017-05-29T17:17:29.706Z,2680
2017-05-29T17:18:30.416Z,2688
2017-05-29T17:19:31.089Z,2692
2017-05-29T17:20:31.776Z,2676
2017-05-29T17:21:32.442Z,2660
2017-05-29T17:22:33.118Z,2620
2017-05-29T17:23:33.858Z,2580
2017-05-29T17:24:34.533Z,2516
2017-05-29T17:25:35.210Z,2464
2017-05-29T17:26:35.879Z,2408
2017-05-29T17:27:36.543Z,2440
2017-05-29T17:28:37.227Z,2460
2017-05-29T17:29:37.902Z,2464
2017-05-29T17:30:38.610Z,2436
2017-05-29T17:31:39.270Z,2404
2017-05-29T17:32:39.994Z,2328
2017-05-29T17:33:40.692Z,2276
2017-05-29T17:34:41.356Z,2192
2017-05-29T17:35:42.023Z,2180
2017-05-29T17:36:42.709Z,2160
2017-05-29T17:37:43.380Z,2184
2017-05-29T17:38:44.072Z,2216
2017-05-29T17:39:44.752Z,2224
2017-05-29T17:40:45.423Z,2232
2017-05-29T17:41:46.088Z,2248
2017-05-29T17:42:46.781Z,2272
2017-05-29T17:43:47.469Z,2280
2017-05-29T17:44:48.163Z,2284
2017-05-29T17:45:48.854Z,2324
2017-05-29T17:46:49.536Z,2388
2017-05-29T17:47:50.236Z,2496
2017-05-29T17:48:50.893Z,2656
2017-05-29T17:49:51.562Z,2784
2017-05-29T17:50:52.247Z,2876
2017-05-29T17:51:52.921Z,2868
2017-05-29T17:52:53.616Z,2796
2017-05-29T17:53:54.281Z,2720
2017-05-29T17:54:54.962Z,2632
2017-05-29T17:55:55.661Z,2572
2017-05-29T17:56:56.338Z,2548
2017-05-29T17:57:57.029Z,2504
2017-05-29T17:58:57.709Z,2468
2017-05-29T17:59:58.409Z,2436
2017-05-29T18:00:59.091Z,2420
2017-05-29T18:01:59.748Z,2400
2017-05-29T18:03:00.422Z,2388
2017-05-29T18:04:01.095Z,2344
2017-05-29T18:05:01.758Z,2288
2017-05-29T18:06:02.485Z,2240
2017-05-29T18:07:03.160Z,2188
2017-05-29T18:08:03.827Z,2200
2017-05-29T18:09:04.537Z,2188
2017-05-29T18:10:05.260Z,2148
2017-05-29T18:11:05.943Z,2080
2017-05-29T18:12:06.616Z,2040
2017-05-29T18:13:07.345Z,2000
2017-05-29T18:14:08.109Z,1976
2017-05-29T18:15:08.775Z,1932
2017-05-29T18:16:09.476Z,1920
2017-05-29T18:17:10.666Z,1880
2017-05-29T18:18:11.755Z,1812
2017-05-29T18:19:12.713Z,1752
2017-05-29T18:20:13.580Z,1680
2017-05-29T18:21:14.266Z,1616
2017-05-29T18:22:14.934Z,1560
2017-05-29T18:23:15.614Z,1504
2017-05-29T18:24:16.287Z,1444
2017-05-29T18:25:16.963Z,1384
2017-05-29T18:26:17.651Z,1348
2017-05-29T18:27:18.346Z,1312
2017-05-29T18:28:19.029Z,1268
2017-05-29T18:29:19.704Z,1232
2017-05-29T18:30:20.389Z,1200
2017-05-29T18:31:21.088Z,1172
2017-05-29T18:32:21.760Z,1144
2017-05-29T18:33:22.470Z,1124
2017-05-29T18:34:23.157Z,1096
2017-05-29T18:35:23.827Z,1068
2017-05-29T18:36:24.533Z,1040
2017-05-29T18:37:25.225Z,1012
2017-05-29T18:38:25.893Z,976
2017-05-29T18:39:26.566Z,948
2017-05-29T18:40:27.259Z,908
2017-05-29T18:41:27.925Z,880
2017-05-29T18:42:28.614Z,848
2017-05-29T18:43:29.377Z,820
2017-05-29T18:44:30.221Z,792
2017-05-29T18:45:30.986Z,772
2017-05-29T18:46:31.747Z,748
2017-05-29T18:47:32.546Z,724
2017-05-29T18:48:33.309Z,708
2017-05-29T18:49:34.031Z,688
2017-05-29T18:50:34.724Z,668
2017-05-29T18:51:35.411Z,648
2017-05-29T18:52:36.191Z,632
2017-05-29T18:53:36.795Z,616
2017-05-29T18:54:37.483Z,604
2017-05-29T18:55:38.260Z,588
2017-05-29T18:56:38.977Z,580
2017-05-29T18:57:39.656Z,564
2017-05-29T18:58:40.340Z,544
2017-05-29T18:59:41.296Z,536
2017-05-29T19:00:42.054Z,520
2017-05-29T19:01:42.790Z,500
2017-05-29T19:02:43.535Z,488
2017-05-29T19:03:44.414Z,472
2017-05-29T19:04:45.120Z,456
2017-05-29T19:05:45.796Z,444
2017-05-29T19:06:46.479Z,428
2017-05-29T19:07:47.161Z,416
2017-05-29T19:08:47.837Z,400
2017-05-29T19:09:48.503Z,388
2017-05-29T19:10:49.478Z,380
2017-05-29T19:11:50.155Z,368
2017-05-29T19:12:50.989Z,356
2017-05-29T19:13:51.660Z,344
2017-05-29T19:14:52.348Z,332
2017-05-29T19:15:53.045Z,324
2017-05-29T19:16:54.332Z,316
2017-05-29T19:17:55.003Z,304
2017-05-29T19:18:55.666Z,292
2017-05-29T19:19:56.345Z,280
2017-05-29T19:20:57.084Z,268
2017-05-29T19:21:57.804Z,256
2017-05-29T19:22:58.469Z,244
2017-05-29T19:23:59.213Z,232
2017-05-29T19:24:59.916Z,220
2017-05-29T19:26:00.602Z,208
2017-05-29T19:27:01.288Z,196
2017-05-29T19:28:01.948Z,188
2017-05-29T19:29:02.669Z,172
2017-05-29T19:30:03.344Z,160
2017-05-29T19:31:04.024Z,148
2017-05-29T19:32:04.858Z,136
2017-05-29T19:33:05.827Z,124
2017-05-29T19:34:06.886Z,116
2017-05-29T19:35:07.763Z,108
2017-05-29T19:36:08.823Z,100
2017-05-29T19:37:09.616Z,92
2017-05-29T19:38:10.434Z,88
2017-05-29T19:39:11.215Z,80
2017-05-29T19:40:12.056Z,76
2017-05-29T19:41:12.850Z,72
2017-05-29T19:42:13.682Z,64
2017-05-29T19:43:14.390Z,60
2017-05-29T19:44:15.145Z,52
2017-05-29T19:45:15.842Z,52
2017-05-29T19:46:16.594Z,48
2017-05-29T19:47:17.293Z,44
2017-05-29T19:48:18.068Z,36
2017-05-29T19:49:19.100Z,36
2017-05-29T19:50:20.309Z,32
2017-05-29T19:51:21.126Z,28
2017-05-29T19:52:21.920Z,24
2017-05-29T19:53:22.706Z,20
2017-05-29T19:54:24.028Z,24
2017-05-29T19:55:24.753Z,16
2017-05-29T19:56:25.507Z,16
2017-05-29T19:57:26.723Z,12
2017-05-29T19:58:27.898Z,12
2017-05-29T19:59:29.581Z,8
2017-05-29T20:00:30.271Z,8
2017-05-29T20:01:30.962Z,8
2017-05-29T20:02:31.640Z,8
2017-05-29T20:03:32.328Z,4
2017-05-29T20:04:33.016Z,8
2017-05-29T20:05:34.136Z,4
2017-05-29T20:06:34.865Z,4
2017-05-29T20:07:35.545Z,4
2017-05-29T20:08:36.313Z,0
2017-05-29T20:09:37.019Z,4
2017-05-29T20:10:37.749Z,4
2017-05-29T20:11:38.530Z,4
2017-05-29T20:12:39.258Z,4
2017-05-29T20:13:39.985Z,0
2017-05-29T20:14:40.664Z,0
2017-05-29T20:15:41.374Z,0
2017-05-29T20:16:42.064Z,0
2017-05-29T20:17:42.884Z,0
2017-05-29T20:18:43.694Z,0